Terminal Aerodrome Forecast
Issued by NWS

Home | Current Version | Previous Version | Text Only | Print | Product List | Glossary On
Versions: 1 2 3 4 5 6 7 8 9 10 11 12 13 14 15 16 17 18 19 20 21
000
FTUS44 KMAF 242300
TAFPEQ
TAF
KPEQ 242328Z 2500/2524 VRB04KT P6SM SKC
     FM251000 VRB03KT 4SM BR SKC
      TEMPO 2511/2514 1/4SM FG OVC001
     FM251400 VRB04KT P6SM SKC=

USA.gov is the U.S. government's official web portal to all federal, state and local government web resources and services.